createdAt,value
2023-02-19T00:00:10.967Z,36.78
2023-02-19T00:02:37.391Z,36.81
2023-02-19T00:05:03.798Z,36.84
2023-02-19T00:07:32.401Z,36.82
2023-02-19T00:09:58.756Z,36.88
2023-02-19T00:12:25.181Z,36.91
2023-02-19T00:14:51.532Z,36.96
2023-02-19T00:17:17.928Z,37.02
2023-02-19T00:19:44.309Z,37.06
2023-02-19T00:22:10.696Z,37.08
2023-02-19T00:24:37.052Z,37.09
2023-02-19T00:27:03.463Z,37.14
2023-02-19T00:29:29.801Z,37.15
2023-02-19T00:31:56.341Z,37.19
2023-02-19T00:34:22.538Z,37.21
2023-02-19T00:36:48.951Z,37.20
2023-02-19T00:39:15.381Z,37.21
2023-02-19T00:41:41.693Z,37.21
2023-02-19T00:44:08.047Z,37.22
2023-02-19T00:46:34.446Z,37.24
2023-02-19T00:49:00.775Z,37.29
2023-02-19T00:51:27.152Z,37.30
2023-02-19T00:53:53.503Z,37.31
2023-02-19T00:56:19.881Z,37.37
2023-02-19T00:58:46.229Z,37.38
2023-02-19T01:01:12.665Z,37.42
2023-02-19T01:03:38.976Z,37.44
2023-02-19T01:06:05.362Z,37.50
2023-02-19T01:08:31.721Z,37.49
2023-02-19T01:10:58.113Z,37.56
2023-02-19T01:13:24.469Z,37.55
2023-02-19T01:15:50.894Z,37.57
2023-02-19T01:18:17.230Z,37.58
2023-02-19T01:20:43.639Z,37.62
2023-02-19T01:23:09.966Z,37.64
2023-02-19T01:25:36.356Z,37.68
2023-02-19T01:28:02.708Z,37.70
2023-02-19T01:30:30.331Z,37.74
2023-02-19T01:32:55.445Z,37.76
2023-02-19T01:35:21.830Z,37.75
2023-02-19T01:37:48.180Z,37.70
2023-02-19T01:40:14.571Z,37.80
2023-02-19T01:42:40.915Z,37.76
2023-02-19T01:45:07.354Z,37.75
2023-02-19T01:47:33.714Z,37.81
2023-02-19T01:50:00.101Z,37.83
2023-02-19T01:52:26.486Z,37.76
2023-02-19T01:54:52.888Z,37.85
2023-02-19T01:57:19.232Z,37.87
2023-02-19T01:59:45.624Z,37.85
2023-02-19T02:02:12.030Z,37.86
2023-02-19T02:04:38.360Z,37.94
2023-02-19T02:07:04.697Z,37.94
2023-02-19T02:09:31.091Z,37.98
2023-02-19T02:11:57.438Z,38.03
2023-02-19T02:14:23.831Z,38.10
2023-02-19T02:16:50.234Z,38.09
2023-02-19T02:19:16.620Z,38.14
2023-02-19T02:21:42.999Z,38.11
2023-02-19T02:24:09.384Z,38.14
2023-02-19T02:26:35.748Z,38.13
2023-02-19T02:29:02.141Z,38.15
2023-02-19T02:31:28.555Z,38.16
2023-02-19T02:33:54.868Z,38.20
2023-02-19T02:36:21.208Z,38.16
2023-02-19T02:38:47.598Z,38.20
2023-02-19T02:41:13.971Z,38.22
2023-02-19T02:43:40.345Z,38.24
2023-02-19T02:46:06.730Z,38.25
2023-02-19T02:48:33.080Z,38.30
2023-02-19T02:50:59.447Z,38.27
2023-02-19T02:53:25.834Z,38.37
2023-02-19T02:55:52.201Z,38.41
2023-02-19T02:58:18.585Z,38.42
2023-02-19T03:00:44.933Z,38.42
2023-02-19T03:03:11.311Z,38.44
2023-02-19T03:05:37.654Z,38.51
2023-02-19T03:08:04.033Z,38.54
2023-02-19T03:10:30.416Z,38.56
2023-02-19T03:12:56.811Z,38.49
2023-02-19T03:15:23.166Z,38.51
2023-02-19T03:17:49.555Z,38.55
2023-02-19T03:20:15.906Z,38.61
2023-02-19T03:22:42.252Z,38.65
2023-02-19T03:25:08.637Z,38.59
2023-02-19T03:27:34.982Z,38.64
2023-02-19T03:30:01.437Z,38.66
2023-02-19T03:32:27.711Z,38.64
2023-02-19T03:34:54.094Z,38.70
2023-02-19T03:37:20.455Z,38.66
2023-02-19T03:39:46.839Z,38.70
2023-02-19T03:42:13.184Z,38.71
2023-02-19T03:44:39.571Z,38.72
2023-02-19T03:47:05.916Z,38.73
2023-02-19T03:49:32.306Z,38.76
2023-02-19T03:51:58.662Z,38.77
2023-02-19T03:54:25.065Z,38.79
2023-02-19T03:56:51.391Z,38.80
2023-02-19T03:59:17.781Z,38.86
2023-02-19T04:01:44.161Z,38.88
2023-02-19T04:04:10.558Z,38.85
2023-02-19T04:06:36.923Z,38.89
2023-02-19T04:09:03.309Z,38.88
2023-02-19T04:11:29.652Z,38.92
2023-02-19T04:13:56.044Z,38.96
2023-02-19T04:16:22.398Z,38.96
2023-02-19T04:18:48.767Z,38.97
2023-02-19T04:21:15.114Z,39.00
2023-02-19T04:23:41.502Z,39.02
2023-02-19T04:26:07.838Z,39.00
2023-02-19T04:28:34.257Z,39.06
2023-02-19T04:31:00.683Z,39.06
2023-02-19T04:33:27.018Z,39.11
2023-02-19T04:35:53.399Z,39.11
2023-02-19T04:38:19.785Z,39.13
2023-02-19T04:40:46.141Z,39.15
2023-02-19T04:43:12.530Z,39.17
2023-02-19T04:45:38.899Z,39.16
2023-02-19T04:48:05.276Z,39.19
2023-02-19T04:50:31.619Z,39.22
2023-02-19T04:52:58.003Z,39.24
2023-02-19T04:55:24.396Z,39.22
2023-02-19T04:57:50.789Z,39.28
2023-02-19T05:00:17.197Z,39.26
2023-02-19T05:02:43.589Z,39.31
2023-02-19T05:05:09.993Z,39.28
2023-02-19T05:07:36.383Z,39.31
2023-02-19T05:10:02.768Z,39.31
2023-02-19T05:12:29.141Z,39.32
2023-02-19T05:14:55.485Z,39.35
2023-02-19T05:17:21.898Z,39.40
2023-02-19T05:19:48.245Z,39.40
2023-02-19T05:22:14.627Z,39.41
2023-02-19T05:24:40.978Z,39.40
2023-02-19T05:27:07.370Z,39.43
2023-02-19T05:29:33.711Z,39.45
2023-02-19T05:32:00.148Z,39.44
2023-02-19T05:34:26.449Z,39.47
2023-02-19T05:36:52.837Z,39.49
2023-02-19T05:39:19.194Z,39.52
2023-02-19T05:41:45.578Z,39.53
2023-02-19T05:44:11.950Z,39.56
2023-02-19T05:46:38.373Z,39.56
2023-02-19T05:49:04.715Z,39.54
2023-02-19T05:51:31.128Z,39.55
2023-02-19T05:53:57.474Z,39.58
2023-02-19T05:56:23.860Z,39.62
2023-02-19T05:58:50.202Z,39.61
2023-02-19T06:01:16.591Z,39.54
2023-02-19T06:03:42.937Z,39.60
2023-02-19T06:06:09.413Z,39.57
2023-02-19T06:08:35.756Z,39.61
2023-02-19T06:11:02.151Z,39.66
2023-02-19T06:13:28.492Z,39.69
2023-02-19T06:15:54.908Z,39.73
2023-02-19T06:18:21.253Z,39.70
2023-02-19T06:20:47.636Z,39.75
2023-02-19T06:23:13.976Z,39.78
2023-02-19T06:25:40.376Z,39.77
2023-02-19T06:28:06.716Z,39.76
2023-02-19T06:30:33.182Z,39.72
2023-02-19T06:32:59.440Z,39.76
2023-02-19T06:35:25.826Z,39.79
2023-02-19T06:37:52.258Z,39.85
2023-02-19T06:40:18.633Z,39.83
2023-02-19T06:42:44.974Z,39.85
2023-02-19T06:45:11.395Z,39.84
2023-02-19T06:47:37.741Z,39.85
2023-02-19T06:50:04.122Z,39.85
2023-02-19T06:52:30.482Z,39.87
2023-02-19T06:54:56.896Z,39.91
2023-02-19T06:57:23.250Z,39.94
2023-02-19T06:59:49.645Z,39.96
2023-02-19T07:02:15.991Z,39.96
2023-02-19T07:04:42.378Z,39.98
2023-02-19T07:07:08.764Z,40.00
2023-02-19T07:09:35.148Z,40.00
2023-02-19T07:12:01.531Z,40.01
2023-02-19T07:14:27.911Z,40.03
2023-02-19T07:16:54.294Z,40.01
2023-02-19T07:19:20.699Z,40.00
2023-02-19T07:21:47.037Z,40.03
2023-02-19T07:24:13.442Z,40.05
2023-02-19T07:26:39.786Z,40.02
2023-02-19T07:29:06.173Z,40.03
2023-02-19T07:31:32.594Z,40.00
2023-02-19T07:33:58.921Z,39.99
2023-02-19T07:36:25.269Z,40.00
2023-02-19T07:38:51.655Z,40.02
2023-02-19T07:41:17.989Z,40.04
2023-02-19T07:43:44.389Z,40.02
2023-02-19T07:46:10.756Z,40.04
2023-02-19T07:48:37.125Z,40.05
2023-02-19T07:51:03.480Z,40.05
2023-02-19T07:53:29.879Z,40.05
2023-02-19T07:55:56.231Z,40.04
2023-02-19T07:58:22.628Z,40.05
2023-02-19T08:00:49.037Z,40.07
2023-02-19T08:03:15.406Z,40.09
2023-02-19T08:05:43.688Z,40.10
2023-02-19T08:08:08.077Z,40.14
2023-02-19T08:10:34.423Z,40.11
2023-02-19T08:13:00.819Z,40.11
2023-02-19T08:15:27.173Z,40.11
2023-02-19T08:17:53.558Z,40.09
2023-02-19T08:20:19.896Z,40.08
2023-02-19T08:22:46.355Z,40.06
2023-02-19T08:25:12.744Z,40.06
2023-02-19T08:27:39.129Z,40.02
2023-02-19T08:30:05.586Z,40.02
2023-02-19T08:32:31.893Z,40.01
2023-02-19T08:34:58.260Z,40.02
2023-02-19T08:37:24.646Z,40.04
2023-02-19T08:39:50.993Z,40.02
2023-02-19T08:42:17.396Z,40.01
2023-02-19T08:44:43.740Z,39.99
2023-02-19T08:47:10.133Z,40.00
2023-02-19T08:49:36.480Z,40.03
2023-02-19T08:52:02.899Z,40.02
2023-02-19T08:54:29.241Z,40.05
2023-02-19T08:56:55.656Z,40.02
2023-02-19T08:59:21.994Z,40.04
2023-02-19T09:01:48.405Z,40.04
2023-02-19T09:04:14.826Z,40.02
2023-02-19T09:06:41.162Z,40.06
2023-02-19T09:09:07.529Z,40.05
2023-02-19T09:11:33.921Z,40.07
2023-02-19T09:14:00.280Z,40.03
2023-02-19T09:16:26.673Z,40.06
2023-02-19T09:18:53.035Z,40.06
2023-02-19T09:21:19.419Z,40.06
2023-02-19T09:23:45.829Z,40.05
2023-02-19T09:26:12.219Z,40.06
2023-02-19T09:28:38.568Z,40.09
2023-02-19T09:31:04.989Z,40.04
2023-02-19T09:33:31.292Z,40.04
2023-02-19T09:35:57.708Z,40.04
2023-02-19T09:38:24.060Z,40.03
2023-02-19T09:40:50.488Z,40.08
2023-02-19T09:43:16.835Z,40.04
2023-02-19T09:45:43.204Z,40.07
2023-02-19T09:48:09.552Z,40.09
2023-02-19T09:50:35.955Z,40.08
2023-02-19T09:53:02.307Z,40.11
2023-02-19T09:55:28.697Z,40.07
2023-02-19T09:57:55.049Z,40.08
2023-02-19T10:00:21.634Z,40.13
2023-02-19T10:02:47.974Z,40.12
2023-02-19T10:05:14.482Z,40.11
2023-02-19T10:07:40.737Z,40.11
2023-02-19T10:10:07.144Z,39.26
2023-02-19T10:12:33.491Z,38.61
2023-02-19T10:14:59.874Z,38.48
2023-02-19T10:17:26.230Z,38.40
2023-02-19T10:19:52.651Z,38.17
2023-02-19T10:22:19.003Z,37.96
2023-02-19T10:24:45.391Z,37.80
2023-02-19T10:27:11.739Z,37.52
2023-02-19T10:29:38.143Z,37.38
2023-02-19T10:32:04.524Z,37.10
2023-02-19T10:34:30.861Z,36.94
2023-02-19T10:36:57.201Z,36.65
2023-02-19T10:39:23.607Z,36.56
2023-02-19T10:41:49.974Z,36.38
2023-02-19T10:44:16.364Z,36.27
2023-02-19T10:46:42.748Z,36.11
2023-02-19T10:49:09.093Z,36.00
2023-02-19T10:51:35.480Z,35.76
2023-02-19T10:54:01.860Z,35.73
2023-02-19T10:56:28.210Z,35.67
2023-02-19T10:58:54.640Z,35.58
2023-02-19T11:01:21.065Z,35.34
2023-02-19T11:03:47.382Z,35.23
2023-02-19T11:06:13.726Z,35.09
2023-02-19T11:08:40.148Z,34.86
2023-02-19T11:11:06.524Z,34.78
2023-02-19T11:13:32.913Z,34.76
2023-02-19T11:15:59.406Z,34.55
2023-02-19T11:18:25.777Z,34.45
2023-02-19T11:20:52.122Z,34.32
2023-02-19T11:23:18.502Z,34.27
2023-02-19T11:25:44.848Z,34.08
2023-02-19T11:28:11.258Z,34.01
2023-02-19T11:30:37.618Z,33.82
2023-02-19T11:33:03.996Z,33.68
2023-02-19T11:35:30.353Z,33.50
2023-02-19T11:37:56.756Z,33.40
2023-02-19T11:40:23.091Z,33.30
2023-02-19T11:42:49.518Z,33.22
2023-02-19T11:45:15.868Z,33.09
2023-02-19T11:47:42.259Z,32.99
2023-02-19T11:50:08.622Z,32.89
2023-02-19T11:52:35.044Z,32.80
2023-02-19T11:55:01.398Z,32.68
2023-02-19T11:57:27.845Z,32.53
2023-02-19T11:59:54.220Z,32.45
2023-02-19T12:02:20.601Z,32.41
2023-02-19T12:04:47.043Z,32.30
2023-02-19T12:07:13.381Z,32.25
2023-02-19T12:09:46.066Z,32.10
2023-02-19T12:12:12.490Z,31.96
2023-02-19T12:14:38.836Z,31.88
2023-02-19T12:17:05.245Z,31.75
2023-02-19T12:19:31.597Z,31.65
2023-02-19T12:21:58.004Z,31.56
2023-02-19T12:24:24.482Z,31.43
2023-02-19T12:26:50.770Z,31.30
2023-02-19T12:29:17.142Z,31.13
2023-02-19T12:31:43.584Z,31.01
2023-02-19T12:34:09.892Z,30.87
2023-02-19T12:36:39.313Z,30.79
2023-02-19T12:39:05.675Z,30.69
2023-02-19T12:41:32.067Z,30.68
2023-02-19T12:43:58.426Z,30.48
2023-02-19T12:46:24.900Z,30.43
2023-02-19T12:48:51.189Z,30.32
2023-02-19T12:51:17.618Z,30.17
2023-02-19T12:53:43.967Z,30.10
2023-02-19T12:56:10.740Z,30.00
2023-02-19T12:58:36.748Z,29.87
2023-02-19T13:01:03.167Z,29.72
2023-02-19T13:03:29.506Z,29.66
2023-02-19T13:05:55.891Z,29.53
2023-02-19T13:08:22.253Z,29.40
2023-02-19T13:10:48.635Z,29.40
2023-02-19T13:13:14.974Z,29.26
2023-02-19T13:15:41.382Z,29.16
2023-02-19T13:18:10.180Z,29.07
2023-02-19T13:20:36.647Z,28.93
2023-02-19T13:23:03.018Z,28.87
2023-02-19T13:25:29.432Z,28.88
2023-02-19T13:27:55.812Z,28.86
2023-02-19T13:30:22.199Z,28.78
2023-02-19T13:32:48.524Z,28.11
2023-02-19T13:35:14.905Z,28.80
2023-02-19T13:37:41.249Z,28.80
2023-02-19T13:40:07.651Z,28.52
2023-02-19T13:42:34.000Z,28.53
2023-02-19T13:45:00.382Z,28.54
2023-02-19T13:47:26.789Z,28.50
2023-02-19T13:49:53.181Z,28.55
2023-02-19T13:52:19.579Z,28.53
2023-02-19T13:54:45.940Z,28.57
2023-02-19T13:57:12.372Z,28.50
2023-02-19T13:59:38.737Z,28.61
2023-02-19T14:02:05.146Z,28.61
2023-02-19T14:04:31.511Z,28.87
2023-02-19T14:06:57.904Z,28.87
2023-02-19T14:09:24.254Z,28.69
2023-02-19T14:11:50.649Z,28.53
2023-02-19T14:14:16.996Z,28.53
2023-02-19T14:16:43.390Z,28.42
2023-02-19T14:19:09.738Z,28.02
2023-02-19T14:21:36.228Z,27.96
2023-02-19T14:24:02.589Z,28.29
2023-02-19T14:26:28.972Z,28.49
2023-02-19T14:28:55.302Z,28.45
2023-02-19T14:31:21.782Z,27.77
2023-02-19T14:33:48.067Z,27.54
2023-02-19T14:36:14.445Z,27.32
2023-02-19T14:38:40.789Z,27.30
2023-02-19T14:41:07.181Z,27.40
2023-02-19T14:43:33.520Z,27.67
2023-02-19T14:45:59.973Z,28.00
2023-02-19T14:48:26.246Z,27.99
2023-02-19T14:50:52.630Z,28.24
2023-02-19T14:53:18.978Z,28.29
2023-02-19T14:55:45.365Z,28.30
2023-02-19T14:58:11.708Z,28.19
2023-02-19T15:00:38.109Z,28.20
2023-02-19T15:03:04.444Z,28.39
2023-02-19T15:05:30.853Z,28.30
2023-02-19T15:07:57.164Z,28.46
2023-02-19T15:10:23.557Z,28.47
2023-02-19T15:12:49.912Z,28.61
2023-02-19T15:15:16.293Z,28.60
2023-02-19T15:17:42.636Z,28.73
2023-02-19T15:20:09.006Z,28.81
2023-02-19T15:22:35.379Z,28.84
2023-02-19T15:25:01.790Z,28.89
2023-02-19T15:27:28.112Z,29.17
2023-02-19T15:29:54.534Z,28.69
2023-02-19T15:32:20.897Z,28.69
2023-02-19T15:34:47.304Z,29.37
2023-02-19T15:37:13.667Z,29.16
2023-02-19T15:39:40.064Z,29.29
2023-02-19T15:42:06.390Z,29.29
2023-02-19T15:44:32.773Z,29.33
2023-02-19T15:46:59.117Z,29.45
2023-02-19T15:49:25.528Z,29.48
2023-02-19T15:51:51.852Z,29.56
2023-02-19T15:54:18.246Z,29.59
2023-02-19T15:56:44.596Z,29.71
2023-02-19T15:59:11.017Z,30.01
2023-02-19T16:01:37.534Z,29.90
2023-02-19T16:04:03.779Z,30.04
2023-02-19T16:06:30.122Z,29.78
2023-02-19T16:08:56.519Z,29.98
2023-02-19T16:11:22.873Z,29.98
2023-02-19T16:13:49.257Z,30.18
2023-02-19T16:16:15.597Z,30.21
2023-02-19T16:18:41.975Z,30.16
2023-02-19T16:21:08.365Z,30.16
2023-02-19T16:23:34.747Z,30.40
2023-02-19T16:26:01.084Z,30.67
2023-02-19T16:28:27.478Z,30.68
2023-02-19T16:30:53.830Z,30.41
2023-02-19T16:33:20.207Z,30.41
2023-02-19T16:35:46.560Z,30.70
2023-02-19T16:38:12.959Z,30.79
2023-02-19T16:40:39.311Z,30.88
2023-02-19T16:43:05.718Z,30.90
2023-02-19T16:45:32.105Z,30.97
2023-02-19T16:47:58.443Z,31.05
2023-02-19T16:50:24.786Z,31.11
2023-02-19T16:52:51.185Z,31.01
2023-02-19T16:55:17.572Z,31.01
2023-02-19T16:57:43.971Z,31.27
2023-02-19T17:00:10.351Z,31.32
2023-02-19T17:02:36.764Z,31.40
2023-02-19T17:05:03.110Z,31.45
2023-02-19T17:07:29.495Z,31.56
2023-02-19T17:09:55.847Z,31.56
2023-02-19T17:12:22.256Z,31.59
2023-02-19T17:14:48.592Z,31.78
2023-02-19T17:17:15.014Z,31.78
2023-02-19T17:19:41.354Z,31.76
2023-02-19T17:22:07.739Z,32.01
2023-02-19T17:24:34.084Z,32.01
2023-02-19T17:27:00.516Z,31.93
2023-02-19T17:29:26.837Z,31.94
2023-02-19T17:31:53.335Z,32.10
2023-02-19T17:34:19.575Z,32.10
2023-02-19T17:36:45.973Z,32.11
2023-02-19T17:39:12.328Z,32.21
2023-02-19T17:41:38.743Z,32.22
2023-02-19T17:44:05.053Z,32.31
2023-02-19T17:46:31.439Z,32.34
2023-02-19T17:48:57.796Z,32.40
2023-02-19T17:51:24.202Z,32.47
2023-02-19T17:53:50.552Z,32.48
2023-02-19T17:56:16.951Z,32.53
2023-02-19T17:58:43.289Z,32.65
2023-02-19T18:01:10.047Z,32.64
2023-02-19T18:03:36.061Z,32.72
2023-02-19T18:06:02.457Z,32.79
2023-02-19T18:08:28.798Z,32.91
2023-02-19T18:10:55.191Z,32.91
2023-02-19T18:13:21.545Z,33.11
2023-02-19T18:15:47.925Z,33.11
2023-02-19T18:18:14.266Z,32.97
2023-02-19T18:20:40.684Z,33.11
2023-02-19T18:23:07.096Z,33.00
2023-02-19T18:25:33.498Z,33.00
2023-02-19T18:27:59.854Z,33.25
2023-02-19T18:30:26.271Z,33.31
2023-02-19T18:32:52.588Z,33.33
2023-02-19T18:35:18.974Z,33.36
2023-02-19T18:37:45.561Z,33.48
2023-02-19T18:40:11.746Z,33.48
2023-02-19T18:42:38.098Z,33.54
2023-02-19T18:45:04.492Z,33.57
2023-02-19T18:47:30.862Z,33.56
2023-02-19T18:49:57.233Z,33.65
2023-02-19T18:52:23.587Z,33.69
2023-02-19T18:54:49.974Z,33.72
2023-02-19T18:57:16.305Z,33.81
2023-02-19T18:59:42.690Z,33.83
2023-02-19T19:02:09.245Z,33.83
2023-02-19T19:04:36.916Z,33.94
2023-02-19T19:07:01.985Z,33.94
2023-02-19T19:09:28.372Z,33.97
2023-02-19T19:11:54.700Z,34.03
2023-02-19T19:14:21.119Z,34.05
2023-02-19T19:16:47.467Z,34.08
2023-02-19T19:19:13.854Z,34.12
2023-02-19T19:21:40.192Z,34.17
2023-02-19T19:24:06.642Z,34.22
2023-02-19T19:26:32.989Z,34.26
2023-02-19T19:28:59.392Z,34.28
2023-02-19T19:31:25.912Z,34.27
2023-02-19T19:33:52.133Z,34.26
2023-02-19T19:36:18.484Z,34.34
2023-02-19T19:38:44.866Z,34.33
2023-02-19T19:41:11.414Z,34.33
2023-02-19T19:43:37.612Z,34.39
2023-02-19T19:46:03.989Z,34.38
2023-02-19T19:48:30.366Z,34.42
2023-02-19T19:50:56.685Z,34.39
2023-02-19T19:53:23.115Z,34.47
2023-02-19T19:55:49.465Z,34.40
2023-02-19T19:58:15.914Z,34.45
2023-02-19T20:00:42.294Z,34.45
2023-02-19T20:03:08.643Z,34.58
2023-02-19T20:05:34.999Z,34.52
2023-02-19T20:08:01.389Z,34.51
2023-02-19T20:10:27.735Z,34.63
2023-02-19T20:12:54.138Z,34.58
2023-02-19T20:15:20.469Z,34.71
2023-02-19T20:17:46.872Z,34.70
2023-02-19T20:20:13.208Z,34.74
2023-02-19T20:22:39.647Z,34.74
2023-02-19T20:25:05.991Z,34.79
2023-02-19T20:27:32.399Z,34.75
2023-02-19T20:29:58.744Z,34.77
2023-02-19T20:32:25.206Z,34.84
2023-02-19T20:34:51.543Z,34.82
2023-02-19T20:37:17.933Z,34.86
2023-02-19T20:39:44.282Z,34.88
2023-02-19T20:42:10.684Z,34.86
2023-02-19T20:44:37.024Z,34.99
2023-02-19T20:47:03.415Z,34.99
2023-02-19T20:49:29.780Z,35.00
2023-02-19T20:51:56.150Z,35.07
2023-02-19T20:54:22.495Z,35.07
2023-02-19T20:56:48.888Z,35.18
2023-02-19T20:59:16.570Z,35.23
2023-02-19T21:01:41.668Z,35.24
2023-02-19T21:04:07.965Z,35.20
2023-02-19T21:06:34.344Z,35.33
2023-02-19T21:09:00.694Z,35.40
2023-02-19T21:11:27.130Z,35.46
2023-02-19T21:13:53.526Z,35.50
2023-02-19T21:16:19.991Z,35.46
2023-02-19T21:18:46.594Z,35.57
2023-02-19T21:21:12.958Z,35.49
2023-02-19T21:23:39.328Z,35.55
2023-02-19T21:26:05.708Z,35.58
2023-02-19T21:28:32.054Z,35.56
2023-02-19T21:30:58.448Z,35.60
2023-02-19T21:33:24.800Z,35.59
2023-02-19T21:35:51.195Z,35.67
2023-02-19T21:38:17.529Z,35.66
2023-02-19T21:40:43.926Z,35.61
2023-02-19T21:43:10.282Z,35.69
2023-02-19T21:45:36.696Z,35.72
2023-02-19T21:48:03.067Z,35.75
2023-02-19T21:50:29.409Z,35.87
2023-02-19T21:52:55.757Z,35.81
2023-02-19T21:55:22.164Z,35.92
2023-02-19T21:57:48.516Z,35.95
2023-02-19T22:00:14.905Z,35.88
2023-02-19T22:02:41.271Z,35.89
2023-02-19T22:05:07.667Z,35.90
2023-02-19T22:07:34.007Z,35.94
2023-02-19T22:10:00.402Z,35.98
2023-02-19T22:12:26.740Z,35.98
2023-02-19T22:14:53.137Z,36.07
2023-02-19T22:17:19.484Z,36.02
2023-02-19T22:19:45.866Z,36.04
2023-02-19T22:22:12.222Z,36.02
2023-02-19T22:24:38.607Z,36.09
2023-02-19T22:27:04.952Z,36.11
2023-02-19T22:29:31.352Z,36.16
2023-02-19T22:31:57.782Z,36.21
2023-02-19T22:34:24.146Z,36.17
2023-02-19T22:36:50.502Z,36.17
2023-02-19T22:39:16.924Z,36.17
2023-02-19T22:41:43.274Z,36.25
2023-02-19T22:44:09.701Z,36.23
2023-02-19T22:46:36.057Z,36.26
2023-02-19T22:49:02.436Z,36.29
2023-02-19T22:51:28.789Z,36.26
2023-02-19T22:53:55.242Z,36.27
2023-02-19T22:56:21.531Z,36.37
2023-02-19T22:58:47.929Z,36.32
2023-02-19T23:01:14.339Z,36.37
2023-02-19T23:03:40.672Z,36.41
2023-02-19T23:06:07.017Z,36.48
2023-02-19T23:08:33.412Z,36.42
2023-02-19T23:10:59.762Z,36.47
2023-02-19T23:13:26.157Z,36.47
2023-02-19T23:15:52.498Z,36.49
2023-02-19T23:18:18.896Z,36.50
2023-02-19T23:20:45.230Z,36.53
2023-02-19T23:23:11.625Z,36.54
2023-02-19T23:25:38.009Z,36.50
2023-02-19T23:28:04.389Z,36.54
2023-02-19T23:30:30.769Z,36.57
2023-02-19T23:32:57.137Z,36.53
2023-02-19T23:35:23.466Z,36.60
2023-02-19T23:37:49.840Z,36.66
2023-02-19T23:40:16.189Z,36.66
2023-02-19T23:42:42.581Z,36.71
2023-02-19T23:45:08.927Z,36.69
2023-02-19T23:47:35.365Z,36.68
2023-02-19T23:50:01.726Z,36.74
2023-02-19T23:52:28.118Z,36.76
2023-02-19T23:54:54.491Z,36.79
2023-02-19T23:57:20.892Z,36.87
2023-02-19T23:59:47.245Z,36.82
